sensor_id;sensor_type;location;lat;lon;timestamp;pressure;altitude;pressure_sealevel;temperature;humidity
55664;BME280;41540;57.880;12.164;2022-12-05T00:00:26;101893.53;;;-1.81;100.00
55664;BME280;41540;57.880;12.164;2022-12-05T00:10:26;101961.38;;;-1.32;100.00
55664;BME280;41540;57.880;12.164;2022-12-05T00:20:27;101988.78;;;-1.19;100.00
55664;BME280;41540;57.880;12.164;2022-12-05T00:30:27;101967.34;;;-1.31;100.00
55664;BME280;41540;57.880;12.164;2022-12-05T00:40:27;101869.34;;;-1.86;100.00
55664;BME280;41540;57.880;12.164;2022-12-05T00:50:29;101951.16;;;-1.42;100.00
55664;BME280;41540;57.880;12.164;2022-12-05T01:00:29;101929.88;;;-1.53;100.00
55664;BME280;41540;57.880;12.164;2022-12-05T01:10:30;101855.63;;;-1.88;100.00
55664;BME280;41540;57.880;12.164;2022-12-05T01:20:30;101947.66;;;-1.34;100.00
55664;BME280;41540;57.880;12.164;2022-12-05T01:30:30;101890.75;;;-1.55;100.00
55664;BME280;41540;57.880;12.164;2022-12-05T01:40:32;101853.75;;;-1.81;100.00
55664;BME280;41540;57.880;12.164;2022-12-05T01:50:35;101839.16;;;-1.83;100.00
55664;BME280;41540;57.880;12.164;2022-12-05T02:00:37;101916.94;;;-1.46;100.00
55664;BME280;41540;57.880;12.164;2022-12-05T02:10:41;101936.03;;;-1.41;100.00
55664;BME280;41540;57.880;12.164;2022-12-05T02:21:02;101857.03;;;-1.82;100.00
55664;BME280;41540;57.880;12.164;2022-12-05T02:31:26;101917.44;;;-1.50;100.00
55664;BME280;41540;57.880;12.164;2022-12-05T02:41:38;101786.41;;;-2.15;100.00
55664;BME280;41540;57.880;12.164;2022-12-05T02:51:49;101843.25;;;-1.75;100.00
55664;BME280;41540;57.880;12.164;2022-12-05T03:01:51;101840.91;;;-1.82;100.00
55664;BME280;41540;57.880;12.164;2022-12-05T03:11:54;101907.19;;;-1.41;100.00
55664;BME280;41540;57.880;12.164;2022-12-05T03:22:05;101835.75;;;-1.73;100.00
55664;BME280;41540;57.880;12.164;2022-12-05T03:42:32;101726.25;;;-2.35;100.00
55664;BME280;41540;57.880;12.164;2022-12-05T03:52:52;101805.69;;;-1.88;100.00
55664;BME280;41540;57.880;12.164;2022-12-05T04:12:59;101734.31;;;-2.20;100.00
55664;BME280;41540;57.880;12.164;2022-12-05T04:23:16;101790.22;;;-1.91;100.00
55664;BME280;41540;57.880;12.164;2022-12-05T04:33:39;101742.47;;;-2.14;100.00
55664;BME280;41540;57.880;12.164;2022-12-05T04:43:43;101814.78;;;-1.71;100.00
55664;BME280;41540;57.880;12.164;2022-12-05T04:53:48;101788.41;;;-1.92;100.00
55664;BME280;41540;57.880;12.164;2022-12-05T05:04:08;101817.13;;;-1.64;100.00
55664;BME280;41540;57.880;12.164;2022-12-05T05:14:10;101774.84;;;-1.92;100.00
55664;BME280;41540;57.880;12.164;2022-12-05T05:24:11;101793.28;;;-1.85;100.00
55664;BME280;41540;57.880;12.164;2022-12-05T05:34:11;101781.97;;;-1.88;100.00
55664;BME280;41540;57.880;12.164;2022-12-05T05:44:14;101692.75;;;-2.31;100.00
55664;BME280;41540;57.880;12.164;2022-12-05T05:54:15;101718.00;;;-2.13;100.00
55664;BME280;41540;57.880;12.164;2022-12-05T06:04:15;101634.28;;;-2.51;100.00
55664;BME280;41540;57.880;12.164;2022-12-05T06:14:15;101638.41;;;-2.43;100.00
55664;BME280;41540;57.880;12.164;2022-12-05T06:24:16;101739.28;;;-1.92;100.00
55664;BME280;41540;57.880;12.164;2022-12-05T06:34:16;101700.09;;;-2.05;100.00
55664;BME280;41540;57.880;12.164;2022-12-05T06:44:17;101707.63;;;-1.96;100.00
55664;BME280;41540;57.880;12.164;2022-12-05T06:54:17;101554.50;;;-2.84;100.00
55664;BME280;41540;57.880;12.164;2022-12-05T07:04:22;101722.16;;;-1.85;100.00
55664;BME280;41540;57.880;12.164;2022-12-05T07:14:25;101723.38;;;-1.90;100.00
55664;BME280;41540;57.880;12.164;2022-12-05T07:24:26;101764.84;;;-1.70;100.00
55664;BME280;41540;57.880;12.164;2022-12-05T07:34:26;101679.41;;;-2.09;100.00
55664;BME280;41540;57.880;12.164;2022-12-05T07:44:27;101646.59;;;-2.27;100.00
55664;BME280;41540;57.880;12.164;2022-12-05T07:54:27;101739.06;;;-1.75;100.00
55664;BME280;41540;57.880;12.164;2022-12-05T08:04:27;101627.53;;;-2.32;100.00
55664;BME280;41540;57.880;12.164;2022-12-05T08:14:28;101639.50;;;-2.21;100.00
55664;BME280;41540;57.880;12.164;2022-12-05T08:24:28;101671.84;;;-1.89;100.00
55664;BME280;41540;57.880;12.164;2022-12-05T08:34:29;101625.16;;;-2.10;100.00
55664;BME280;41540;57.880;12.164;2022-12-05T08:44:29;101643.34;;;-1.95;100.00
55664;BME280;41540;57.880;12.164;2022-12-05T08:54:29;101629.41;;;-2.00;100.00
55664;BME280;41540;57.880;12.164;2022-12-05T09:04:30;101740.69;;;-1.36;100.00
55664;BME280;41540;57.880;12.164;2022-12-05T09:14:31;101650.50;;;-1.91;100.00
55664;BME280;41540;57.880;12.164;2022-12-05T09:24:32;101605.38;;;-2.04;100.00
55664;BME280;41540;57.880;12.164;2022-12-05T09:34:32;101645.06;;;-1.65;100.00
55664;BME280;41540;57.880;12.164;2022-12-05T09:55:10;101621.03;;;-1.48;100.00
55664;BME280;41540;57.880;12.164;2022-12-05T10:05:24;101558.94;;;-1.72;100.00
55664;BME280;41540;57.880;12.164;2022-12-05T10:25:33;101662.69;;;-0.84;100.00
55664;BME280;41540;57.880;12.164;2022-12-05T10:35:37;101656.31;;;-0.79;100.00
55664;BME280;41540;57.880;12.164;2022-12-05T10:45:46;101608.09;;;-0.88;100.00
55664;BME280;41540;57.880;12.164;2022-12-05T10:55:47;101598.94;;;-0.86;100.00
55664;BME280;41540;57.880;12.164;2022-12-05T11:05:51;101568.06;;;-0.90;100.00
55664;BME280;41540;57.880;12.164;2022-12-05T11:15:52;101505.19;;;-1.13;100.00
55664;BME280;41540;57.880;12.164;2022-12-05T11:25:54;101541.56;;;-0.82;100.00
55664;BME280;41540;57.880;12.164;2022-12-05T11:36:00;101505.59;;;-0.87;100.00
55664;BME280;41540;57.880;12.164;2022-12-05T11:56:38;101472.38;;;-0.88;100.00
55664;BME280;41540;57.880;12.164;2022-12-05T12:07:53;101460.91;;;-0.83;100.00
55664;BME280;41540;57.880;12.164;2022-12-05T12:17:45;101525.78;;;-0.56;100.00
55664;BME280;41540;57.880;12.164;2022-12-05T12:49:00;101515.09;;;-0.40;100.00
55664;BME280;41540;57.880;12.164;2022-12-05T13:09:24;101372.94;;;-1.13;100.00
55664;BME280;41540;57.880;12.164;2022-12-05T13:19:48;101334.59;;;-1.27;100.00
55664;BME280;41540;57.880;12.164;2022-12-05T13:29:53;101450.66;;;-0.51;100.00
55664;BME280;41540;57.880;12.164;2022-12-05T13:39:57;101439.91;;;-0.58;100.00
55664;BME280;41540;57.880;12.164;2022-12-05T14:00:34;101344.44;;;-1.09;100.00
55664;BME280;41540;57.880;12.164;2022-12-05T14:21:00;101403.44;;;-0.69;100.00
55664;BME280;41540;57.880;12.164;2022-12-05T14:41:32;101356.16;;;-1.11;100.00
55664;BME280;41540;57.880;12.164;2022-12-05T15:01:49;101393.63;;;-0.87;100.00
55664;BME280;41540;57.880;12.164;2022-12-05T15:11:51;101234.47;;;-1.73;100.00
55664;BME280;41540;57.880;12.164;2022-12-05T15:21:55;101356.41;;;-0.96;100.00
55664;BME280;41540;57.880;12.164;2022-12-05T15:42:14;101338.44;;;-1.10;100.00
55664;BME280;41540;57.880;12.164;2022-12-05T15:52:29;101202.16;;;-1.86;100.00
55664;BME280;41540;57.880;12.164;2022-12-05T16:02:40;101112.47;;;-2.29;100.00
55664;BME280;41540;57.880;12.164;2022-12-05T16:12:43;101285.06;;;-1.32;100.00
55664;BME280;41540;57.880;12.164;2022-12-05T16:22:44;101188.50;;;-1.76;100.00
55664;BME280;41540;57.880;12.164;2022-12-05T16:32:48;101234.94;;;-1.45;100.00
55664;BME280;41540;57.880;12.164;2022-12-05T16:43:00;101220.53;;;-1.56;100.00
55664;BME280;41540;57.880;12.164;2022-12-05T17:03:11;101239.31;;;-1.32;100.00
55664;BME280;41540;57.880;12.164;2022-12-05T17:13:13;101189.72;;;-1.49;100.00
55664;BME280;41540;57.880;12.164;2022-12-05T17:23:15;101264.06;;;-0.95;100.00
55664;BME280;41540;57.880;12.164;2022-12-05T17:33:17;101238.75;;;-1.06;100.00
55664;BME280;41540;57.880;12.164;2022-12-05T17:43:18;101149.50;;;-1.54;100.00
55664;BME280;41540;57.880;12.164;2022-12-05T17:53:19;101256.88;;;-0.89;100.00
55664;BME280;41540;57.880;12.164;2022-12-05T18:03:20;101197.97;;;-1.29;100.00
55664;BME280;41540;57.880;12.164;2022-12-05T18:13:20;101160.53;;;-1.54;100.00
55664;BME280;41540;57.880;12.164;2022-12-05T18:23:21;101106.44;;;-1.75;100.00
55664;BME280;41540;57.880;12.164;2022-12-05T18:33:21;101136.84;;;-1.65;100.00
55664;BME280;41540;57.880;12.164;2022-12-05T18:43:21;101111.66;;;-1.73;100.00
55664;BME280;41540;57.880;12.164;2022-12-05T18:53:22;101124.19;;;-1.53;100.00
55664;BME280;41540;57.880;12.164;2022-12-05T19:03:22;101187.38;;;-1.12;100.00
55664;BME280;41540;57.880;12.164;2022-12-05T19:13:22;101179.13;;;-0.98;100.00
55664;BME280;41540;57.880;12.164;2022-12-05T19:23:24;101121.69;;;-1.41;100.00
55664;BME280;41540;57.880;12.164;2022-12-05T19:33:24;100880.94;;;-2.70;100.00
55664;BME280;41540;57.880;12.164;2022-12-05T19:43:26;101181.75;;;-1.08;100.00
55664;BME280;41540;57.880;12.164;2022-12-05T19:53:29;101183.56;;;-0.95;100.00
55664;BME280;41540;57.880;12.164;2022-12-05T20:03:29;100937.09;;;-2.44;100.00
55664;BME280;41540;57.880;12.164;2022-12-05T20:13:30;101090.25;;;-1.53;100.00
55664;BME280;41540;57.880;12.164;2022-12-05T20:23:30;101115.94;;;-1.39;100.00
55664;BME280;41540;57.880;12.164;2022-12-05T20:33:32;101121.56;;;-1.31;100.00
55664;BME280;41540;57.880;12.164;2022-12-05T20:43:33;101031.91;;;-1.75;100.00
55664;BME280;41540;57.880;12.164;2022-12-05T20:53:36;101066.19;;;-1.59;100.00
55664;BME280;41540;57.880;12.164;2022-12-05T21:03:44;101126.28;;;-1.13;100.00
55664;BME280;41540;57.880;12.164;2022-12-05T21:13:45;101018.66;;;-1.71;100.00
55664;BME280;41540;57.880;12.164;2022-12-05T21:23:47;101046.97;;;-1.55;100.00
55664;BME280;41540;57.880;12.164;2022-12-05T21:33:55;101063.91;;;-1.32;100.00
55664;BME280;41540;57.880;12.164;2022-12-05T21:43:56;101049.06;;;-1.38;100.00
55664;BME280;41540;57.880;12.164;2022-12-05T21:53:56;100910.72;;;-2.00;100.00
55664;BME280;41540;57.880;12.164;2022-12-05T22:03:57;100979.88;;;-1.57;100.00
55664;BME280;41540;57.880;12.164;2022-12-05T22:13:58;101003.75;;;-1.43;100.00
55664;BME280;41540;57.880;12.164;2022-12-05T22:23:59;101016.03;;;-1.26;100.00
55664;BME280;41540;57.880;12.164;2022-12-05T22:33:59;100880.56;;;-1.96;100.00
55664;BME280;41540;57.880;12.164;2022-12-05T22:43:59;100964.72;;;-1.44;100.00
55664;BME280;41540;57.880;12.164;2022-12-05T22:54:00;100891.63;;;-1.83;100.00
55664;BME280;41540;57.880;12.164;2022-12-05T23:04:06;100955.59;;;-1.42;100.00
55664;BME280;41540;57.880;12.164;2022-12-05T23:14:07;100919.00;;;-1.55;100.00
55664;BME280;41540;57.880;12.164;2022-12-05T23:24:10;100826.91;;;-2.00;100.00
55664;BME280;41540;57.880;12.164;2022-12-05T23:34:11;100943.63;;;-1.31;100.00
55664;BME280;41540;57.880;12.164;2022-12-05T23:44:11;100837.41;;;-1.72;100.00
55664;BME280;41540;57.880;12.164;2022-12-05T23:54:11;100745.88;;;-2.09;100.00
